Aérodrome :
LOGIN :

S'inscrire | Disclaimer

   EN    FR    IT 

 










Légende :    VFR   VFR Marginal   IFR   IFR Intensif   IFR Très Intensif
Visi : 
Plafond : 
>= 8 km
>= 3000ft
5 à 8 km
1000 à 3000 ft
1500m à 5 km
500 à 1000 ft
800 à 1500m
200 à 500 ft
< 800m
< 200 ft
Symboles :   Orages  Brouillard  Fortes neiges  Fortes précipitations  Vent > 20 kt
SIGMETs :   Divers  Orages  Givrage  Turbulence  Onde Orograph.  Cendres Volcan.






- Altitude de l'aérodrome : 194 ft


EBCV - Chièvres

DERNIER METAR :
  • 190525Z AUTO 22004KT 9999 FEW043/// BKN055/// 02/01 Q1016 BLU

METARs EXPIRÉS :
  • 190455Z AUTO 25006KT 9999 SCT030/// SCT048/// 03/02 Q1016 BLU
  • 190425Z AUTO 25005KT 9999 SCT030/// 03/02 Q1016 BLU
  • 190355Z AUTO 25007KT 9999 NCD 03/02 Q1016 BLU
  • 190325Z AUTO 25006KT 9999 FEW028/// SCT049/// 03/02 Q1015 BLU
  • 190255Z AUTO 25004KT 9999 SCT041/// BKN064/// 03/02 Q1016 BLU
  • 190246Z AUTO 25005KT 9999 FEW024/// BKN065/// 03/02 Q1016 BLU

TAF TAF EBCV
Valide du 18 à 19h jusqu'au 19 à 07h UTC


181541Z 1819/1907 28005KT 9000 SCT025
PROB40
TEMPO 1819/1907 5000 -SHRA BR BKN020 BY EBWM



MET'MAP, la Météo Aéronautique d'un coup d'oeil ! - Copyright ORBIFLY Décembre 2007 - Disclaimer

ORBIFLY MET'MAP TEAM :

Programmation & Développement : Alexandra Zaïnal
Conception & Développement : Baudouin d'Aumeries
Co-Programmation & Développement : Marc-Olivier Méhu
Soutien technique & logistique : Manuel Goepfert

Contact : metmap@orbifly.com




SOURCES & CREDITS :

   NOAA